createdAt,value
2023-01-13T00:00:31.124Z,150775.91
2023-01-13T00:03:01.288Z,150778.50
2023-01-13T00:05:31.422Z,150773.38
2023-01-13T00:08:01.449Z,150788.78
2023-01-13T00:10:31.607Z,150792.66
2023-01-13T00:13:01.683Z,150784.91
2023-01-13T00:15:35.093Z,150769.50
2023-01-13T00:18:05.242Z,150741.19
2023-01-13T00:20:37.848Z,150705.19
2023-01-13T00:23:07.927Z,150682.03
2023-01-13T00:25:37.944Z,150676.91
2023-01-13T00:28:09.926Z,150653.75
2023-01-13T00:30:42.964Z,150637.06
2023-01-13T00:33:13.049Z,150633.19
2023-01-13T00:35:43.391Z,150613.91
2023-01-13T00:38:13.447Z,150604.94
2023-01-13T00:40:44.633Z,150602.34
2023-01-13T00:43:24.075Z,150592.06
2023-01-13T00:45:57.108Z,150590.81
2023-01-13T00:48:27.991Z,150597.22
2023-01-13T00:50:59.162Z,150597.22
2023-01-13T00:53:30.388Z,150604.94
2023-01-13T00:56:03.819Z,150611.34
2023-01-13T00:58:36.083Z,150615.22
2023-01-13T01:01:10.979Z,150626.78
2023-01-13T01:03:41.375Z,150638.31
2023-01-13T01:06:14.377Z,150644.78
2023-01-13T01:08:45.225Z,150655.06
2023-01-13T01:11:17.593Z,150658.94
2023-01-13T01:13:54.893Z,150679.50
2023-01-13T01:16:30.092Z,150705.19
2023-01-13T01:19:00.540Z,150721.91
2023-01-13T01:21:31.715Z,150741.19
2023-01-13T01:24:03.338Z,150745.06
2023-01-13T01:26:35.132Z,150754.06
2023-01-13T01:29:05.438Z,150772.09
2023-01-13T01:31:38.112Z,150774.63
2023-01-13T01:34:08.549Z,150774.63
2023-01-13T01:36:38.925Z,150775.91
2023-01-13T01:39:09.148Z,150784.91
2023-01-13T01:41:40.034Z,150796.53
2023-01-13T01:44:42.980Z,150801.66
2023-01-13T01:47:21.370Z,150806.81
2023-01-13T01:49:52.948Z,150820.97
2023-01-13T01:52:29.120Z,150829.94
2023-01-13T01:55:04.658Z,150851.81
2023-01-13T01:57:41.272Z,150849.22
2023-01-13T02:00:13.395Z,150846.69
2023-01-13T02:02:49.277Z,150845.34
2023-01-13T02:05:20.414Z,150840.22
2023-01-13T02:07:52.818Z,150836.41
2023-01-13T02:10:24.590Z,150823.50
2023-01-13T02:12:54.391Z,150819.63
2023-01-13T02:15:29.476Z,150808.09
2023-01-13T02:18:32.003Z,150805.50
2023-01-13T02:21:21.050Z,150814.50
2023-01-13T02:24:36.127Z,150818.38
2023-01-13T02:27:32.451Z,150815.78
2023-01-13T02:30:48.952Z,150820.97
2023-01-13T02:33:46.731Z,150828.66
2023-01-13T02:36:28.180Z,150832.53
2023-01-13T02:39:03.840Z,150831.25
2023-01-13T02:41:54.967Z,150842.81
2023-01-13T02:44:31.189Z,150862.09
2023-01-13T02:47:09.570Z,150854.38
2023-01-13T02:49:42.911Z,150853.09
2023-01-13T02:52:16.975Z,150855.69
2023-01-13T02:54:54.200Z,150860.84
2023-01-13T02:57:26.219Z,150871.13
2023-01-13T02:59:58.328Z,150876.25
2023-01-13T03:02:31.228Z,150883.97
2023-01-13T03:05:02.945Z,150885.28
2023-01-13T03:07:55.929Z,150876.25
2023-01-13T03:10:36.777Z,150864.66
2023-01-13T03:13:23.555Z,150869.78
2023-01-13T03:16:03.033Z,150882.69
2023-01-13T03:18:48.771Z,150885.28
2023-01-13T03:21:26.042Z,150881.41
2023-01-13T03:24:03.947Z,150872.41
2023-01-13T03:26:41.581Z,150858.25
2023-01-13T03:29:27.747Z,150864.66
2023-01-13T03:32:01.741Z,150854.38
2023-01-13T03:34:38.111Z,150850.53
2023-01-13T03:37:11.946Z,150840.22
2023-01-13T03:39:44.479Z,150835.06
2023-01-13T03:42:21.077Z,150815.78
2023-01-13T03:44:55.119Z,150814.50
2023-01-13T03:47:32.375Z,150808.09
2023-01-13T03:50:09.646Z,150792.66
2023-01-13T03:52:43.439Z,150783.66
2023-01-13T03:55:18.684Z,150773.38
2023-01-13T03:57:57.012Z,150761.75
2023-01-13T04:00:34.712Z,150751.47
2023-01-13T04:03:10.990Z,150745.06
2023-01-13T04:05:48.427Z,150736.03
2023-01-13T04:08:24.855Z,150737.31
2023-01-13T04:11:01.267Z,150750.19
2023-01-13T04:13:35.360Z,150757.94
2023-01-13T04:16:07.995Z,150761.75
2023-01-13T04:18:40.945Z,150782.38
2023-01-13T04:21:13.982Z,150783.66
2023-01-13T04:23:44.100Z,150792.66
2023-01-13T04:26:14.381Z,150797.81
2023-01-13T04:28:44.454Z,150797.81
2023-01-13T04:31:15.130Z,150806.81
2023-01-13T04:33:45.188Z,150823.50
2023-01-13T04:36:19.732Z,150842.81
2023-01-13T04:38:49.924Z,150845.34
2023-01-13T04:41:20.006Z,150847.94
2023-01-13T04:43:50.336Z,150853.09
2023-01-13T04:46:20.448Z,150849.22
2023-01-13T04:48:50.644Z,150854.38
2023-01-13T04:51:23.274Z,150849.22
2023-01-13T04:53:53.295Z,150845.34
2023-01-13T04:56:23.360Z,150841.53
2023-01-13T04:58:53.477Z,150853.09
2023-01-13T05:01:24.129Z,150859.50
2023-01-13T05:03:54.220Z,150873.66
2023-01-13T05:06:27.072Z,150877.53
2023-01-13T05:08:57.392Z,150886.56
2023-01-13T05:11:39.835Z,150880.13
2023-01-13T05:14:22.341Z,150889.09
2023-01-13T05:17:04.084Z,150885.28
2023-01-13T05:19:36.969Z,150885.28
2023-01-13T05:22:22.415Z,150883.97
2023-01-13T05:25:04.937Z,150916.16
2023-01-13T05:27:35.887Z,150892.97
2023-01-13T05:30:06.499Z,150890.41
2023-01-13T05:32:36.707Z,150877.53
2023-01-13T05:35:07.592Z,150856.97
2023-01-13T05:37:40.410Z,150850.53
2023-01-13T05:40:24.429Z,150844.09
2023-01-13T05:43:16.789Z,150824.78
2023-01-13T05:45:47.462Z,150820.97
2023-01-13T05:48:18.096Z,150809.34
2023-01-13T05:50:49.516Z,150819.63
2023-01-13T05:53:23.242Z,150809.34
2023-01-13T05:55:54.202Z,150826.09
2023-01-13T05:58:25.710Z,150819.63
2023-01-13T06:00:56.357Z,150814.50
2023-01-13T06:03:26.572Z,150822.25
2023-01-13T06:05:59.528Z,150806.81
2023-01-13T06:08:33.043Z,150810.63
2023-01-13T06:11:03.091Z,150813.22
2023-01-13T06:13:33.124Z,150801.66
2023-01-13T06:16:03.541Z,150787.50
2023-01-13T06:18:33.682Z,150775.91
2023-01-13T06:21:04.954Z,150763.06
2023-01-13T06:23:38.850Z,150760.47
2023-01-13T06:26:15.704Z,150747.66
2023-01-13T06:28:46.151Z,150733.50
2023-01-13T06:31:16.427Z,150718.06
2023-01-13T06:33:52.021Z,150707.75
2023-01-13T06:36:25.562Z,150703.94
2023-01-13T06:39:00.945Z,150702.59
2023-01-13T06:41:46.556Z,150693.66
2023-01-13T06:44:16.937Z,150687.19
2023-01-13T06:46:47.422Z,150694.91
2023-01-13T06:49:17.648Z,150689.78
2023-01-13T06:51:47.965Z,150693.66
2023-01-13T06:54:20.823Z,150693.66
2023-01-13T06:56:50.921Z,150696.19
2023-01-13T06:59:20.961Z,150698.78
2023-01-13T07:01:51.268Z,150700.06
2023-01-13T07:04:21.794Z,150682.03
2023-01-13T07:06:52.122Z,150697.47
2023-01-13T07:09:24.806Z,150682.03
2023-01-13T07:11:54.889Z,150684.63
2023-01-13T07:14:37.282Z,150674.34
2023-01-13T07:17:07.353Z,150666.63
2023-01-13T07:19:37.366Z,150662.75
2023-01-13T07:22:07.588Z,150675.63
2023-01-13T07:24:55.701Z,150674.34
2023-01-13T07:27:26.036Z,150692.31
2023-01-13T07:29:56.269Z,150710.34
2023-01-13T07:32:26.457Z,150728.34
2023-01-13T07:34:56.647Z,150712.94
2023-01-13T07:37:26.728Z,150739.91
2023-01-13T07:39:59.569Z,150728.34
2023-01-13T07:42:41.998Z,150761.75
2023-01-13T07:45:13.672Z,150790.06
2023-01-13T07:47:44.181Z,150790.06
2023-01-13T07:50:17.366Z,150784.91
2023-01-13T07:52:47.428Z,150792.66
2023-01-13T07:55:20.263Z,150800.34
2023-01-13T07:57:51.843Z,150806.81
2023-01-13T08:00:23.119Z,150774.63
2023-01-13T08:02:53.275Z,150815.78
2023-01-13T08:05:23.376Z,150833.78
2023-01-13T08:07:53.469Z,150824.78
2023-01-13T08:10:28.713Z,150811.94
2023-01-13T08:13:11.053Z,150805.50
2023-01-13T08:15:41.493Z,150790.06
2023-01-13T08:18:11.720Z,150777.22
2023-01-13T08:20:41.802Z,150778.50
2023-01-13T08:23:11.940Z,150792.66
2023-01-13T08:25:44.976Z,150770.75
2023-01-13T08:28:15.252Z,150773.38
2023-01-13T08:30:46.082Z,150764.34
2023-01-13T08:33:16.663Z,150790.06
2023-01-13T08:35:48.316Z,150811.94
2023-01-13T08:38:18.450Z,150790.06
2023-01-13T08:40:51.115Z,150793.94
2023-01-13T08:43:21.302Z,150793.94
2023-01-13T08:46:00.280Z,150820.97
2023-01-13T08:48:31.788Z,150832.53
2023-01-13T08:51:06.997Z,150847.94
2023-01-13T08:53:37.234Z,150823.50
2023-01-13T08:56:13.663Z,150851.81
2023-01-13T08:58:43.687Z,150877.53
2023-01-13T09:01:16.759Z,150911.00
2023-01-13T09:03:46.839Z,150912.28
2023-01-13T09:06:18.179Z,150936.72
2023-01-13T09:08:48.656Z,150938.00
2023-01-13T09:11:35.713Z,150934.16
2023-01-13T09:14:06.009Z,150947.00
2023-01-13T09:16:36.076Z,150930.31
2023-01-13T09:19:06.152Z,150927.69
2023-01-13T09:21:36.196Z,150936.72
2023-01-13T09:24:06.468Z,150943.13
2023-01-13T09:26:41.074Z,150950.88
2023-01-13T09:29:11.142Z,150936.72
2023-01-13T09:31:43.944Z,150950.88
2023-01-13T09:34:29.643Z,150977.88
2023-01-13T09:36:59.692Z,150980.47
2023-01-13T09:39:29.991Z,151008.81
2023-01-13T09:42:29.552Z,150975.34
2023-01-13T09:45:05.966Z,151002.34
2023-01-13T09:47:42.615Z,151025.50
2023-01-13T09:50:27.998Z,151044.81
2023-01-13T09:52:58.849Z,151080.84
2023-01-13T09:55:33.990Z,151070.56
2023-01-13T09:58:15.364Z,151066.69
2023-01-13T10:00:50.713Z,151087.31
2023-01-13T10:03:25.643Z,151137.53
2023-01-13T10:06:04.833Z,151156.84
2023-01-13T10:08:37.912Z,151132.38
2023-01-13T10:11:28.323Z,151163.25
2023-01-13T10:14:04.385Z,151178.72
2023-01-13T10:16:42.369Z,151210.91
2023-01-13T10:19:20.588Z,151227.66
2023-01-13T10:22:27.466Z,151226.38
2023-01-13T10:25:11.959Z,151208.31
2023-01-13T10:27:46.908Z,151239.28
2023-01-13T10:30:31.500Z,151253.41
2023-01-13T10:33:03.845Z,151275.31
2023-01-13T10:35:52.945Z,151308.81
2023-01-13T10:38:26.731Z,151337.13
2023-01-13T10:40:58.894Z,151379.66
2023-01-13T10:43:30.619Z,151392.56
2023-01-13T10:46:16.233Z,151420.88
2023-01-13T10:48:55.846Z,151438.94
2023-01-13T10:51:28.677Z,151460.88
2023-01-13T10:54:01.734Z,151476.34
2023-01-13T10:56:34.826Z,151509.84
2023-01-13T10:59:22.396Z,151489.19
2023-01-13T11:02:23.836Z,151502.09
2023-01-13T11:05:06.955Z,151498.22
2023-01-13T11:07:39.747Z,151536.91
2023-01-13T11:10:22.611Z,151530.47
2023-01-13T11:13:02.498Z,151517.56
2023-01-13T11:15:43.105Z,151564.00
2023-01-13T11:18:22.638Z,151618.16
2023-01-13T11:20:54.627Z,151610.38
2023-01-13T11:23:28.153Z,151656.78
2023-01-13T11:26:04.726Z,151677.47
2023-01-13T11:28:47.590Z,151676.13
2023-01-13T11:31:24.689Z,151652.97
2023-01-13T11:34:02.647Z,151686.44
2023-01-13T11:36:37.859Z,151669.72
2023-01-13T11:39:22.755Z,151640.03
2023-01-13T11:42:12.533Z,151660.66
2023-01-13T11:44:49.098Z,151681.28
2023-01-13T11:47:22.756Z,151714.84
2023-01-13T11:49:55.506Z,151689.06
2023-01-13T11:52:31.137Z,151676.13
2023-01-13T11:55:21.775Z,151641.31
2023-01-13T11:58:29.073Z,151661.94
2023-01-13T12:01:12.353Z,151678.75
2023-01-13T12:03:49.264Z,151695.50
2023-01-13T12:06:35.776Z,151683.91
2023-01-13T12:09:36.724Z,151668.44
2023-01-13T12:12:27.862Z,151673.59
2023-01-13T12:15:21.674Z,151691.59
2023-01-13T12:18:03.281Z,151716.13
2023-01-13T12:20:40.160Z,151714.84
2023-01-13T12:23:21.119Z,151710.97
2023-01-13T12:25:55.970Z,151701.97
2023-01-13T12:28:31.689Z,151699.38
2023-01-13T12:31:04.532Z,151732.91
2023-01-13T12:33:50.355Z,151718.72
2023-01-13T12:36:30.437Z,151730.31
2023-01-13T12:39:12.604Z,151725.16
2023-01-13T12:42:02.694Z,151727.75
2023-01-13T12:44:32.719Z,151726.44
2023-01-13T12:47:03.588Z,151745.78
2023-01-13T12:49:35.212Z,151740.63
2023-01-13T12:52:15.576Z,151694.22
2023-01-13T13:09:46.853Z,151735.47
2023-01-13T13:13:07.847Z,151745.78
2023-01-13T13:15:40.350Z,151748.38
2023-01-13T13:18:31.418Z,151734.19
2023-01-13T13:21:05.252Z,151741.94
2023-01-13T13:23:48.520Z,151734.19
2023-01-13T13:26:31.830Z,151731.63
2023-01-13T13:29:35.245Z,151744.50
2023-01-13T13:35:27.651Z,151731.63
2023-01-13T13:38:19.527Z,151739.34
2023-01-13T13:41:03.385Z,151740.63
2023-01-13T13:43:55.621Z,151721.28
2023-01-13T13:46:40.617Z,151725.16
2023-01-13T13:49:10.669Z,151735.47
2023-01-13T13:51:45.325Z,151725.16
2023-01-13T14:03:40.326Z,151705.81
2023-01-13T14:06:24.721Z,151690.34
2023-01-13T14:08:55.965Z,151690.34
2023-01-13T14:11:32.699Z,151678.75
2023-01-13T14:23:22.014Z,151668.44
2023-01-13T14:25:53.808Z,151669.72
2023-01-13T14:28:27.736Z,151654.22
2023-01-13T14:30:59.394Z,151655.50
2023-01-13T14:33:38.913Z,151647.81
2023-01-13T14:36:18.451Z,151637.44
2023-01-13T14:38:53.373Z,151637.44
2023-01-13T14:41:31.846Z,151629.72
2023-01-13T14:44:04.645Z,151618.16
2023-01-13T14:46:41.540Z,151612.94
2023-01-13T14:49:37.270Z,151606.50
2023-01-13T14:52:10.953Z,151605.22
2023-01-13T14:54:50.418Z,151601.34
2023-01-13T15:03:20.596Z,151585.88
2023-01-13T15:05:51.680Z,151572.97
2023-01-13T15:08:45.683Z,151580.72
2023-01-13T15:11:26.745Z,151571.69
2023-01-13T15:14:01.706Z,151567.81
2023-01-13T15:16:34.972Z,151554.97
2023-01-13T15:19:05.139Z,151549.81
2023-01-13T15:21:35.263Z,151539.50
2023-01-13T15:24:05.533Z,151535.63
2023-01-13T15:26:38.437Z,151524.00
2023-01-13T15:29:16.357Z,151526.59
2023-01-13T15:31:47.598Z,151521.44
2023-01-13T15:34:17.710Z,151512.41
2023-01-13T15:36:47.989Z,151500.81
2023-01-13T15:39:18.251Z,151485.34
2023-01-13T15:42:03.260Z,151473.72
2023-01-13T15:44:45.658Z,151469.84
2023-01-13T15:47:15.773Z,151466.03
2023-01-13T15:49:48.500Z,151454.38
2023-01-13T15:52:24.514Z,151460.88
2023-01-13T15:54:55.865Z,151453.13
2023-01-13T15:57:31.064Z,151449.25
2023-01-13T16:00:05.727Z,151451.84
2023-01-13T16:02:36.915Z,151459.53
2023-01-13T16:05:09.796Z,151457.00
2023-01-13T16:07:39.960Z,151445.34
2023-01-13T16:10:18.745Z,151436.38
2023-01-13T16:12:52.036Z,151432.50
2023-01-13T16:15:25.254Z,151436.38
2023-01-13T16:17:59.898Z,151433.78
2023-01-13T16:20:30.948Z,151431.22
2023-01-13T16:23:01.082Z,151431.22
2023-01-13T16:25:31.520Z,151431.22
2023-01-13T16:28:04.542Z,151432.50
2023-01-13T16:30:37.178Z,151423.47
2023-01-13T16:33:07.492Z,151422.19
2023-01-13T16:35:37.768Z,151418.31
2023-01-13T16:38:27.970Z,151413.16
2023-01-13T16:41:00.191Z,151410.56
2023-01-13T16:43:33.076Z,151406.75
2023-01-13T16:46:03.410Z,151409.28
2023-01-13T16:48:33.684Z,151399.00
2023-01-13T16:51:05.206Z,151400.25
2023-01-13T16:53:35.257Z,151397.72
2023-01-13T16:56:06.062Z,151397.72
2023-01-13T16:58:38.755Z,151386.09
2023-01-13T17:01:09.234Z,151393.84
2023-01-13T17:03:39.407Z,151399.00
2023-01-13T17:06:13.445Z,151391.25
2023-01-13T17:08:43.567Z,151395.13
2023-01-13T17:11:13.949Z,151389.97
2023-01-13T17:13:47.093Z,151379.66
2023-01-13T17:16:22.402Z,151371.94
2023-01-13T17:18:52.760Z,151359.06
2023-01-13T17:21:22.819Z,151360.31
2023-01-13T17:23:52.926Z,151359.06
2023-01-13T17:26:34.093Z,151352.63
2023-01-13T17:29:08.951Z,151342.31
2023-01-13T17:31:39.291Z,151339.72
2023-01-13T17:34:10.024Z,151337.13
2023-01-13T17:36:40.549Z,151330.69
2023-01-13T17:39:10.877Z,151315.25
2023-01-13T17:41:41.167Z,151319.13
2023-01-13T17:44:16.662Z,151317.84
2023-01-13T17:46:47.149Z,151304.94
2023-01-13T17:49:18.887Z,151295.91
2023-01-13T17:51:51.533Z,151288.22
2023-01-13T17:54:22.925Z,151301.06
2023-01-13T17:56:53.287Z,151307.50
2023-01-13T17:59:26.273Z,151298.50
2023-01-13T18:01:56.413Z,151297.19
2023-01-13T18:04:31.011Z,151292.03
2023-01-13T18:07:01.029Z,151286.88
2023-01-13T18:09:31.056Z,151288.22
2023-01-13T18:12:01.092Z,151284.34
2023-01-13T18:14:34.147Z,151284.34
2023-01-13T18:17:04.312Z,151276.59
2023-01-13T19:46:39.213Z,151312.66
2023-01-13T19:49:11.733Z,151303.66
2023-01-13T19:51:44.195Z,151304.94
2023-01-13T19:54:20.711Z,151302.34
2023-01-13T19:57:11.260Z,151299.78
2023-01-13T19:59:45.477Z,151285.63
2023-01-13T20:02:27.852Z,151286.88
2023-01-13T20:04:59.101Z,151284.34
2023-01-13T20:07:31.976Z,151281.75
2023-01-13T20:10:02.091Z,151286.88
2023-01-13T20:12:32.421Z,151281.75
2023-01-13T20:15:02.591Z,151292.03
2023-01-13T20:17:35.313Z,151298.50
2023-01-13T20:20:13.888Z,151302.34
2023-01-13T20:22:51.251Z,151289.50
2023-01-13T20:25:21.973Z,151284.34
2023-01-13T20:40:26.198Z,151288.22
2023-01-13T20:42:53.920Z,151286.88
2023-01-13T20:48:53.416Z,151276.59
2023-01-13T20:51:23.754Z,151279.19
2023-01-13T20:54:09.404Z,151277.88
2023-01-13T20:57:14.520Z,151280.47
2023-01-13T20:59:53.306Z,151276.59
2023-01-13T21:03:48.583Z,151276.59
2023-01-13T21:06:23.823Z,151274.03
2023-01-13T21:08:58.892Z,151281.75
2023-01-13T21:11:45.230Z,151289.50
2023-01-13T21:14:33.828Z,151292.03
2023-01-13T21:17:28.724Z,151283.03
2023-01-13T21:19:56.558Z,151288.22
2023-01-13T21:22:27.625Z,151292.03
2023-01-13T21:24:58.589Z,151289.50
2023-01-13T21:27:28.759Z,151289.50
2023-01-13T21:30:01.456Z,151294.66
2023-01-13T21:32:35.018Z,151293.38
2023-01-13T21:35:05.605Z,151308.81
2023-01-13T21:37:38.471Z,151310.09
2023-01-13T21:40:11.167Z,151317.84
2023-01-13T21:42:56.605Z,151316.53
2023-01-13T21:45:42.439Z,151319.13
2023-01-13T21:48:12.759Z,151316.53
